KSSC

Shaw AFB Airport

Sumter, South Carolina, USA
METAR KSSC 261311Z AUTO 19009KT 10SM OVC007 24/22 A2999 RMK AO2 CIG 005V007 SLP155
Observed Flight Rules
May-26 @ 13:11 UTC (20 minutes ago) Instrument Flight Rules
Wind Visibility Clouds
190° at 9 knots 10 miles
  • Overcast at 700' AGL
Temperatures Readings
Current 24°C / 75°F
Dewpoint 22°C / 72°F
Humidity 89%
Altimeter 29.99" Hg
Pressure 1015.5 hPa
Elevation 74
METAR KSSC 261311Z AUTO 19009KT 10SM OVC007 24/22 A2999 RMK AO2 CIG 005V007 SLP155
Observed Flight Rules
May-26 @ 13:11 UTC
(20 minutes ago)
IFR
Wind Visibility
190° at 9 knots 10 miles
Clouds
  • Overcast at 700' AGL
Temperature Dewpoint
24°C / 75°F 22°C / 72°F
Humidity Altimeter Pressure
89% 29.99" Hg 1015.5 hPa